createdAt,value
2018-12-14T00:00:13.159Z,928.78
2018-12-14T00:01:13.224Z,928.81
2018-12-14T00:02:13.283Z,928.80
2018-12-14T00:03:13.321Z,928.81
2018-12-14T00:04:13.357Z,928.84
2018-12-14T00:05:13.403Z,928.88
2018-12-14T00:06:13.428Z,928.91
2018-12-14T00:07:13.562Z,928.91
2018-12-14T00:08:13.523Z,928.94
2018-12-14T00:09:13.567Z,928.92
2018-12-14T00:10:13.647Z,928.93
2018-12-14T00:11:13.673Z,928.91
2018-12-14T00:12:13.730Z,928.87
2018-12-14T00:13:13.781Z,928.90
2018-12-14T00:14:13.805Z,928.92
2018-12-14T00:15:13.929Z,928.97
2018-12-14T00:16:13.902Z,928.97
2018-12-14T00:17:13.951Z,928.98
2018-12-14T00:18:14.022Z,928.97
2018-12-14T00:19:14.060Z,928.95
2018-12-14T00:20:14.089Z,928.94
2018-12-14T00:21:14.166Z,928.95
2018-12-14T00:22:14.212Z,928.98
2018-12-14T00:23:14.287Z,929.00
2018-12-14T00:24:14.299Z,928.99
2018-12-14T00:25:14.363Z,928.97
2018-12-14T00:26:14.442Z,928.98
2018-12-14T00:27:14.435Z,928.98
2018-12-14T00:28:14.483Z,928.98
2018-12-14T00:29:14.552Z,928.98
2018-12-14T00:30:14.571Z,928.95
2018-12-14T00:31:14.637Z,928.98
2018-12-14T00:32:14.702Z,928.94
2018-12-14T00:33:14.731Z,928.93
2018-12-14T00:34:14.777Z,928.96
2018-12-14T00:35:14.810Z,928.93
2018-12-14T00:36:14.852Z,928.92
2018-12-14T00:37:14.918Z,928.91
2018-12-14T00:38:14.963Z,928.87
2018-12-14T00:39:15.037Z,928.89
2018-12-14T00:40:15.051Z,928.90
2018-12-14T00:41:15.183Z,928.93
2018-12-14T00:42:15.127Z,928.89
2018-12-14T00:43:15.206Z,928.88
2018-12-14T00:44:15.251Z,928.89
2018-12-14T00:45:15.327Z,928.86
2018-12-14T00:46:15.354Z,928.91
2018-12-14T00:47:15.399Z,928.89
2018-12-14T00:48:15.428Z,928.93
2018-12-14T00:49:15.492Z,928.91
2018-12-14T00:50:15.536Z,928.94
2018-12-14T00:51:15.575Z,928.98
2018-12-14T00:52:15.647Z,929.00
2018-12-14T00:53:15.681Z,929.01
2018-12-14T00:54:15.733Z,929.04
2018-12-14T00:55:15.800Z,929.04
2018-12-14T00:56:15.834Z,929.03
2018-12-14T00:57:15.877Z,929.01
2018-12-14T00:58:15.951Z,929.03
2018-12-14T00:59:15.970Z,929.05
2018-12-14T01:00:16.010Z,929.05
2018-12-14T01:01:16.056Z,929.07
2018-12-14T01:02:16.100Z,929.12
2018-12-14T01:03:16.213Z,929.10
2018-12-14T01:04:16.207Z,929.10
2018-12-14T01:05:16.270Z,929.09
2018-12-14T01:06:16.285Z,929.05
2018-12-14T01:07:16.349Z,929.06
2018-12-14T01:08:16.383Z,929.01
2018-12-14T01:09:16.425Z,928.98
2018-12-14T01:10:16.455Z,928.98
2018-12-14T01:11:16.541Z,928.97
2018-12-14T01:12:16.595Z,928.96
2018-12-14T01:13:16.603Z,928.97
2018-12-14T01:14:16.664Z,928.91
2018-12-14T01:15:16.704Z,928.91
2018-12-14T01:16:16.762Z,928.91
2018-12-14T01:17:16.803Z,928.94
2018-12-14T01:18:16.882Z,928.96
2018-12-14T01:19:16.912Z,929.01
2018-12-14T01:20:17.001Z,929.03
2018-12-14T01:21:17.003Z,929.04
2018-12-14T01:22:17.057Z,929.02
2018-12-14T01:23:17.113Z,929.06
2018-12-14T01:24:17.149Z,929.06
2018-12-14T01:25:17.191Z,929.04
2018-12-14T01:26:17.248Z,929.07
2018-12-14T01:27:17.307Z,929.08
2018-12-14T01:28:17.344Z,929.07
2018-12-14T01:29:17.419Z,929.08
2018-12-14T01:30:17.433Z,929.06
2018-12-14T01:31:17.486Z,929.07
2018-12-14T01:32:17.535Z,929.07
2018-12-14T01:33:17.585Z,929.11
2018-12-14T01:34:17.602Z,929.07
2018-12-14T01:35:17.651Z,929.06
2018-12-14T01:36:17.690Z,929.06
2018-12-14T01:37:17.756Z,929.07
2018-12-14T01:38:17.810Z,929.06
2018-12-14T01:39:17.841Z,929.01
2018-12-14T01:40:17.896Z,929.03
2018-12-14T01:41:17.940Z,929.05
2018-12-14T01:42:17.991Z,929.02
2018-12-14T01:43:18.032Z,929.02
2018-12-14T01:44:18.078Z,929.05
2018-12-14T01:45:18.148Z,928.98
2018-12-14T01:46:18.205Z,929.02
2018-12-14T01:47:18.218Z,929.04
2018-12-14T01:48:18.275Z,929.04
2018-12-14T01:49:18.353Z,929.04
2018-12-14T01:50:18.363Z,929.03
2018-12-14T01:51:18.411Z,929.03
2018-12-14T01:52:18.480Z,929.02
2018-12-14T01:53:18.479Z,929.01
2018-12-14T01:54:18.576Z,929.02
2018-12-14T01:55:18.576Z,928.99
2018-12-14T01:56:18.651Z,929.00
2018-12-14T01:57:18.688Z,928.99
2018-12-14T01:58:18.775Z,928.94
2018-12-14T01:59:18.798Z,928.90
2018-12-14T02:00:18.820Z,928.92
2018-12-14T02:01:18.876Z,928.91
2018-12-14T02:02:18.915Z,928.94
2018-12-14T02:03:18.966Z,928.93
2018-12-14T02:04:19.000Z,928.95
2018-12-14T02:05:19.139Z,928.97
2018-12-14T02:06:19.129Z,928.97
2018-12-14T02:07:19.156Z,928.95
2018-12-14T02:08:19.183Z,928.96
2018-12-14T02:09:19.249Z,928.90
2018-12-14T02:10:19.325Z,928.87
2018-12-14T02:11:19.362Z,928.85
2018-12-14T02:12:19.379Z,928.87
2018-12-14T02:13:19.452Z,928.88
2018-12-14T02:14:19.477Z,928.87
2018-12-14T02:15:19.529Z,928.86
2018-12-14T02:16:19.692Z,928.86
2018-12-14T02:17:19.645Z,928.89
2018-12-14T02:18:19.674Z,928.87
2018-12-14T02:19:19.802Z,928.83
2018-12-14T02:20:19.865Z,928.83
2018-12-14T02:21:19.856Z,928.80
2018-12-14T02:22:20.003Z,928.76
2018-12-14T02:23:19.902Z,928.77
2018-12-14T02:24:19.979Z,928.75
2018-12-14T02:25:19.983Z,928.72
2018-12-14T02:26:20.095Z,928.74
2018-12-14T02:27:20.086Z,928.72
2018-12-14T02:28:20.218Z,928.76
2018-12-14T02:29:20.234Z,928.74
2018-12-14T02:30:20.274Z,928.71
2018-12-14T02:31:20.370Z,928.71
2018-12-14T02:32:20.309Z,928.70
2018-12-14T02:33:20.474Z,928.73
2018-12-14T02:34:20.457Z,928.72
2018-12-14T02:35:20.474Z,928.70
2018-12-14T02:36:20.606Z,928.71
2018-12-14T02:37:20.566Z,928.71
2018-12-14T02:38:20.656Z,928.70
2018-12-14T02:39:20.634Z,928.68
2018-12-14T02:40:20.690Z,928.68
2018-12-14T02:41:20.787Z,928.67
2018-12-14T02:42:20.782Z,928.68
2018-12-14T02:43:20.826Z,928.70
2018-12-14T02:44:20.874Z,928.65
2018-12-14T02:45:20.931Z,928.66
2018-12-14T02:46:20.969Z,928.66
2018-12-14T02:47:20.991Z,928.67
2018-12-14T02:48:21.073Z,928.67
2018-12-14T02:49:21.158Z,928.67
2018-12-14T02:50:21.152Z,928.76
2018-12-14T02:51:21.224Z,928.73
2018-12-14T02:52:21.264Z,928.79
2018-12-14T02:53:21.284Z,928.77
2018-12-14T02:54:21.342Z,928.81
2018-12-14T02:55:21.406Z,928.76
2018-12-14T02:56:21.472Z,928.78
2018-12-14T02:57:21.499Z,928.79
2018-12-14T02:58:21.573Z,928.76
2018-12-14T02:59:21.620Z,928.75
2018-12-14T03:00:21.625Z,928.72
2018-12-14T03:01:21.666Z,928.67
2018-12-14T03:02:21.780Z,928.65
2018-12-14T03:03:21.741Z,928.58
2018-12-14T03:04:21.808Z,928.58
2018-12-14T03:05:21.861Z,928.53
2018-12-14T03:06:21.898Z,928.56
2018-12-14T03:07:21.948Z,928.55
2018-12-14T03:08:21.979Z,928.55
2018-12-14T03:09:22.039Z,928.53
2018-12-14T03:10:22.079Z,928.55
2018-12-14T03:11:22.131Z,928.53
2018-12-14T03:12:26.692Z,928.55
2018-12-14T03:13:22.272Z,928.55
2018-12-14T03:14:22.260Z,928.54
2018-12-14T03:15:22.365Z,928.50
2018-12-14T03:16:22.415Z,928.44
2018-12-14T03:17:22.449Z,928.40
2018-12-14T03:18:22.448Z,928.40
2018-12-14T03:19:22.511Z,928.38
2018-12-14T03:20:22.545Z,928.44
2018-12-14T03:21:22.590Z,928.41
2018-12-14T03:22:22.658Z,928.45
2018-12-14T03:23:22.736Z,928.40
2018-12-14T03:24:22.743Z,928.40
2018-12-14T03:25:22.816Z,928.35
2018-12-14T03:26:22.826Z,928.34
2018-12-14T03:27:22.878Z,928.31
2018-12-14T03:28:22.910Z,928.26
2018-12-14T03:29:23.021Z,928.30
2018-12-14T03:30:23.017Z,928.29
2018-12-14T03:31:23.113Z,928.31
2018-12-14T03:32:23.088Z,928.29
2018-12-14T03:33:23.164Z,928.33
2018-12-14T03:34:23.214Z,928.30
2018-12-14T03:35:23.254Z,928.30
2018-12-14T03:36:23.304Z,928.30
2018-12-14T03:37:23.326Z,928.24
2018-12-14T03:38:23.399Z,928.24
2018-12-14T03:39:23.429Z,928.24
2018-12-14T03:40:23.521Z,928.18
2018-12-14T03:41:23.542Z,928.19
2018-12-14T03:42:23.574Z,928.22
2018-12-14T03:43:23.620Z,928.24
2018-12-14T03:44:23.660Z,928.23
2018-12-14T03:45:23.735Z,928.24
2018-12-14T03:46:23.767Z,928.26
2018-12-14T03:47:23.806Z,928.33
2018-12-14T03:48:23.883Z,928.34
2018-12-14T03:49:23.949Z,928.41
2018-12-14T03:50:23.946Z,928.40
2018-12-14T03:51:23.994Z,928.35
2018-12-14T03:52:24.044Z,928.34
2018-12-14T03:53:24.079Z,928.38
2018-12-14T03:54:24.181Z,928.35
2018-12-14T03:55:24.236Z,928.36
2018-12-14T03:56:24.283Z,928.36
2018-12-14T03:57:24.321Z,928.35
2018-12-14T03:58:24.310Z,928.35
2018-12-14T03:59:24.417Z,928.32
2018-12-14T04:00:24.437Z,928.31
2018-12-14T04:01:24.462Z,928.32
2018-12-14T04:02:24.510Z,928.34
2018-12-14T04:03:24.585Z,928.32
2018-12-14T04:04:24.595Z,928.30
2018-12-14T04:05:24.631Z,928.32
2018-12-14T04:06:24.699Z,928.31
2018-12-14T04:07:24.728Z,928.32
2018-12-14T04:08:24.818Z,928.31
2018-12-14T04:09:24.844Z,928.31
2018-12-14T04:10:24.860Z,928.29
2018-12-14T04:11:24.930Z,928.33
2018-12-14T04:12:24.975Z,928.25
2018-12-14T04:13:25.020Z,928.27
2018-12-14T04:14:25.077Z,928.30
2018-12-14T04:15:25.103Z,928.26
2018-12-14T04:16:25.168Z,928.27
2018-12-14T04:17:25.266Z,928.24
2018-12-14T04:18:25.269Z,928.22
2018-12-14T04:19:25.295Z,928.18
2018-12-14T04:20:25.353Z,928.18
2018-12-14T04:21:25.383Z,928.17
2018-12-14T04:22:25.422Z,928.11
2018-12-14T04:23:25.480Z,928.20
2018-12-14T04:24:25.524Z,928.20
2018-12-14T04:25:25.639Z,928.19
2018-12-14T04:26:25.620Z,928.19
2018-12-14T04:27:25.779Z,928.22
2018-12-14T04:28:25.708Z,928.20
2018-12-14T04:29:25.754Z,928.24
2018-12-14T04:30:25.858Z,928.23
2018-12-14T04:31:25.856Z,928.20
2018-12-14T04:32:25.925Z,928.21
2018-12-14T04:33:25.932Z,928.26
2018-12-14T04:34:26.004Z,928.21
2018-12-14T04:35:26.046Z,928.25
2018-12-14T04:36:26.094Z,928.24
2018-12-14T04:37:26.193Z,928.23
2018-12-14T04:38:26.189Z,928.25
2018-12-14T04:39:26.208Z,928.18
2018-12-14T04:40:26.276Z,928.16
2018-12-14T04:41:26.307Z,928.15
2018-12-14T04:42:26.410Z,928.17
2018-12-14T04:43:26.428Z,928.11
2018-12-14T04:44:26.511Z,928.16
2018-12-14T04:45:26.505Z,928.15
2018-12-14T04:46:26.538Z,928.16
2018-12-14T04:47:26.642Z,928.17
2018-12-14T04:48:26.648Z,928.18
2018-12-14T04:49:26.690Z,928.17
2018-12-14T04:50:26.728Z,928.21
2018-12-14T04:51:26.781Z,928.20
2018-12-14T04:52:26.847Z,928.19
2018-12-14T04:53:26.879Z,928.13
2018-12-14T04:54:26.969Z,928.12
2018-12-14T04:55:26.973Z,928.08
2018-12-14T04:56:27.005Z,928.08
2018-12-14T04:57:27.053Z,928.07
2018-12-14T04:58:27.110Z,928.08
2018-12-14T04:59:27.146Z,928.09
2018-12-14T05:00:27.197Z,928.06
2018-12-14T05:01:27.242Z,928.08
2018-12-14T05:02:27.289Z,928.06
2018-12-14T05:03:27.327Z,928.06
2018-12-14T05:04:27.380Z,928.04
2018-12-14T05:05:27.415Z,928.05
2018-12-14T05:06:27.481Z,928.06
2018-12-14T05:07:27.524Z,927.98
2018-12-14T05:08:27.561Z,927.99
2018-12-14T05:09:27.603Z,927.97
2018-12-14T05:10:27.662Z,927.93
2018-12-14T05:11:27.759Z,927.95
2018-12-14T05:12:27.794Z,927.95
2018-12-14T05:13:27.802Z,927.88
2018-12-14T05:14:27.841Z,927.90
2018-12-14T05:15:27.890Z,927.87
2018-12-14T05:16:27.928Z,927.90
2018-12-14T05:17:27.973Z,927.86
2018-12-14T05:18:28.035Z,927.84
2018-12-14T05:19:28.067Z,927.81
2018-12-14T05:20:28.118Z,927.83
2018-12-14T05:21:28.168Z,927.83
2018-12-14T05:22:28.212Z,927.82
2018-12-14T05:23:28.258Z,927.85
2018-12-14T05:24:28.314Z,927.82
2018-12-14T05:25:28.336Z,927.81
2018-12-14T05:26:29.048Z,927.82
2018-12-14T05:27:28.441Z,927.80
2018-12-14T05:28:28.500Z,927.82
2018-12-14T05:29:28.539Z,927.79
2018-12-14T05:30:28.587Z,927.79
2018-12-14T05:31:28.635Z,927.77
2018-12-14T05:32:28.729Z,927.77
2018-12-14T05:33:28.739Z,927.76
2018-12-14T05:34:28.796Z,927.74
2018-12-14T05:35:28.863Z,927.70
2018-12-14T05:36:28.908Z,927.74
2018-12-14T05:37:28.965Z,927.70
2018-12-14T05:38:28.949Z,927.68
2018-12-14T05:39:29.000Z,927.70
2018-12-14T05:40:29.052Z,927.72
2018-12-14T05:41:29.090Z,927.67
2018-12-14T05:42:29.152Z,927.64
2018-12-14T05:43:29.171Z,927.68
2018-12-14T05:44:29.315Z,927.61
2018-12-14T05:45:29.276Z,927.62
2018-12-14T05:46:29.316Z,927.64
2018-12-14T05:47:29.368Z,927.63
2018-12-14T05:48:29.410Z,927.65
2018-12-14T05:49:29.716Z,927.65
2018-12-14T05:50:29.556Z,927.64
2018-12-14T05:51:29.564Z,927.70
2018-12-14T05:52:29.603Z,927.70
2018-12-14T05:53:29.653Z,927.73
2018-12-14T05:54:29.690Z,927.72
2018-12-14T05:55:29.741Z,927.73
2018-12-14T05:56:29.796Z,927.75
2018-12-14T05:57:29.831Z,927.75
2018-12-14T05:58:29.925Z,927.80
2018-12-14T05:59:29.990Z,927.82
2018-12-14T06:00:29.970Z,927.84
2018-12-14T06:01:30.032Z,927.83
2018-12-14T06:02:30.071Z,927.82
2018-12-14T06:03:30.136Z,927.83
2018-12-14T06:04:30.155Z,927.78
2018-12-14T06:05:30.210Z,927.78
2018-12-14T06:06:30.247Z,927.78
2018-12-14T06:07:30.311Z,927.77
2018-12-14T06:08:30.346Z,927.73
2018-12-14T06:09:30.396Z,927.75
2018-12-14T06:10:30.494Z,927.73
2018-12-14T06:11:30.476Z,927.72
2018-12-14T06:12:30.585Z,927.74
2018-12-14T06:13:30.585Z,927.75
2018-12-14T06:14:30.707Z,927.72
2018-12-14T06:15:30.678Z,927.72
2018-12-14T06:16:30.710Z,927.74
2018-12-14T06:17:30.755Z,927.72
2018-12-14T06:18:30.799Z,927.76
2018-12-14T06:19:30.848Z,927.76
2018-12-14T06:20:30.892Z,927.77
2018-12-14T06:21:30.951Z,927.81
2018-12-14T06:22:30.989Z,927.82
2018-12-14T06:23:31.042Z,927.81
2018-12-14T06:24:31.091Z,927.78
2018-12-14T06:25:31.137Z,927.77
2018-12-14T06:26:31.170Z,927.80
2018-12-14T06:27:31.240Z,927.81
2018-12-14T06:28:31.271Z,927.84
2018-12-14T06:29:31.325Z,927.88
2018-12-14T06:30:31.386Z,927.87
2018-12-14T06:31:31.419Z,927.83
2018-12-14T06:32:31.511Z,927.86
2018-12-14T06:33:31.513Z,927.91
2018-12-14T06:34:31.552Z,927.90
2018-12-14T06:35:31.604Z,927.94
2018-12-14T06:36:31.648Z,927.93
2018-12-14T06:37:31.936Z,927.95
2018-12-14T06:38:31.743Z,927.94
2018-12-14T06:39:31.777Z,927.93
2018-12-14T06:40:31.822Z,927.93
2018-12-14T06:41:31.919Z,927.91
2018-12-14T06:42:31.940Z,927.91
2018-12-14T06:43:31.963Z,927.91
2018-12-14T06:44:32.025Z,927.92
2018-12-14T06:45:32.058Z,927.87
2018-12-14T06:46:32.099Z,927.90
2018-12-14T06:47:32.142Z,927.84
2018-12-14T06:48:32.446Z,927.85
2018-12-14T06:49:32.303Z,927.84
2018-12-14T06:50:32.326Z,927.80
2018-12-14T06:51:32.330Z,927.79
2018-12-14T06:52:32.389Z,927.75
2018-12-14T06:53:32.431Z,927.75
2018-12-14T06:54:32.486Z,927.76
2018-12-14T06:55:32.578Z,927.78
2018-12-14T06:56:32.566Z,927.85
2018-12-14T06:57:32.624Z,927.83
2018-12-14T06:58:32.643Z,927.87
2018-12-14T06:59:33.018Z,927.85
2018-12-14T07:00:32.803Z,927.87
2018-12-14T07:01:32.796Z,927.91
2018-12-14T07:02:32.840Z,927.92
2018-12-14T07:03:32.903Z,927.91
2018-12-14T07:04:32.941Z,927.94
2018-12-14T07:05:32.995Z,927.91
2018-12-14T07:06:33.032Z,927.93
2018-12-14T07:07:33.156Z,927.91
2018-12-14T07:08:33.126Z,927.94
2018-12-14T07:09:33.178Z,927.93
2018-12-14T07:10:33.217Z,928.03
2018-12-14T07:11:33.248Z,928.06
2018-12-14T07:12:33.310Z,928.06
2018-12-14T07:13:33.341Z,928.08
2018-12-14T07:14:33.401Z,928.10
2018-12-14T07:15:33.439Z,928.14
2018-12-14T07:16:33.483Z,928.10
2018-12-14T07:17:33.591Z,928.15
2018-12-14T07:18:33.580Z,928.09
2018-12-14T07:19:33.679Z,928.09
2018-12-14T07:20:33.691Z,928.04
2018-12-14T07:21:33.710Z,928.09
2018-12-14T07:22:33.776Z,928.11
2018-12-14T07:23:33.859Z,928.09
2018-12-14T07:24:33.863Z,928.16
2018-12-14T07:25:34.166Z,928.15
2018-12-14T07:26:33.939Z,928.17
2018-12-14T07:27:34.008Z,928.22
2018-12-14T07:28:34.085Z,928.27
2018-12-14T07:29:34.095Z,928.26
2018-12-14T07:30:34.197Z,928.24
2018-12-14T07:31:34.170Z,928.26
2018-12-14T07:32:34.224Z,928.25
2018-12-14T07:33:34.272Z,928.23
2018-12-14T07:34:34.323Z,928.25
2018-12-14T07:35:34.422Z,928.25
2018-12-14T07:36:34.422Z,928.24
2018-12-14T07:37:34.505Z,928.27
2018-12-14T07:38:34.492Z,928.30
2018-12-14T07:39:34.541Z,928.29
2018-12-14T07:40:34.638Z,928.29
2018-12-14T07:41:34.635Z,928.32
2018-12-14T07:42:34.710Z,928.31
2018-12-14T07:43:34.742Z,928.31
2018-12-14T07:44:34.860Z,928.32
2018-12-14T07:45:34.831Z,928.31
2018-12-14T07:46:34.866Z,928.27
2018-12-14T07:47:34.926Z,928.26
2018-12-14T07:48:34.959Z,928.26
2018-12-14T07:49:35.015Z,928.24
2018-12-14T07:50:35.067Z,928.24
2018-12-14T07:51:35.345Z,928.23
2018-12-14T07:52:35.161Z,928.21
2018-12-14T07:53:35.202Z,928.21
2018-12-14T07:54:35.238Z,928.23
2018-12-14T07:55:35.268Z,928.22
2018-12-14T07:56:35.333Z,928.20
2018-12-14T07:57:35.385Z,928.18
2018-12-14T07:58:35.426Z,928.15
2018-12-14T07:59:35.474Z,928.16
2018-12-14T08:00:35.507Z,928.14
2018-12-14T08:01:35.574Z,928.13
2018-12-14T08:02:35.624Z,928.16
2018-12-14T08:03:35.652Z,928.12
2018-12-14T08:04:35.695Z,928.12
2018-12-14T08:05:35.728Z,928.13
2018-12-14T08:06:35.803Z,928.13
2018-12-14T08:07:35.899Z,928.11
2018-12-14T08:08:35.885Z,928.15
2018-12-14T08:09:35.941Z,928.17
2018-12-14T08:10:35.981Z,928.16
2018-12-14T08:11:36.041Z,928.16
2018-12-14T08:12:36.073Z,928.16
2018-12-14T08:13:36.099Z,928.17
2018-12-14T08:14:36.169Z,928.18
2018-12-14T08:15:36.207Z,928.17
2018-12-14T08:16:36.290Z,928.20
2018-12-14T08:17:36.301Z,928.24
2018-12-14T08:18:36.400Z,928.28
2018-12-14T08:19:36.432Z,928.30
2018-12-14T08:20:36.439Z,928.31
2018-12-14T08:21:36.478Z,928.40
2018-12-14T08:22:36.542Z,928.43
2018-12-14T08:23:36.828Z,928.44
2018-12-14T08:24:36.630Z,928.53
2018-12-14T08:25:36.672Z,928.53
2018-12-14T08:26:36.721Z,928.54
2018-12-14T08:27:36.821Z,928.53
2018-12-14T08:28:36.803Z,928.57
2018-12-14T08:29:36.899Z,928.58
2018-12-14T08:30:36.888Z,928.54
2018-12-14T08:31:36.949Z,928.55
2018-12-14T08:32:37.026Z,928.54
2018-12-14T08:33:37.046Z,928.51
2018-12-14T08:34:37.076Z,928.55
2018-12-14T08:35:37.131Z,928.50
2018-12-14T08:36:37.184Z,928.46
2018-12-14T08:37:37.241Z,928.49
2018-12-14T08:38:37.267Z,928.45
2018-12-14T08:39:37.338Z,928.48
2018-12-14T08:40:37.406Z,928.45
2018-12-14T08:41:38.012Z,928.48
2018-12-14T08:42:37.485Z,928.49
2018-12-14T08:43:41.445Z,928.51
2018-12-14T08:44:37.548Z,928.50
2018-12-14T08:45:37.586Z,928.51
2018-12-14T08:46:37.641Z,928.51
2018-12-14T08:47:37.681Z,928.50
2018-12-14T08:48:37.720Z,928.54
2018-12-14T08:49:37.765Z,928.56
2018-12-14T08:50:37.832Z,928.52
2018-12-14T08:51:37.873Z,928.57
2018-12-14T08:52:37.926Z,928.47
2018-12-14T08:53:37.990Z,928.50
2018-12-14T08:54:37.996Z,928.45
2018-12-14T08:55:38.041Z,928.41
2018-12-14T08:56:38.100Z,928.41
2018-12-14T08:57:38.177Z,928.43
2018-12-14T08:58:38.239Z,928.41
2018-12-14T08:59:38.239Z,928.43
2018-12-14T09:00:38.298Z,928.44
2018-12-14T09:01:38.383Z,928.46
2018-12-14T09:02:38.388Z,928.52
2018-12-14T09:03:38.426Z,928.51
2018-12-14T09:04:38.533Z,928.53
2018-12-14T09:05:38.528Z,928.60
2018-12-14T09:06:38.628Z,928.57
2018-12-14T09:07:38.655Z,928.60
2018-12-14T09:08:38.676Z,928.57
2018-12-14T09:09:38.701Z,928.59
2018-12-14T09:10:38.759Z,928.57
2018-12-14T09:11:38.791Z,928.57
2018-12-14T09:12:38.845Z,928.64
2018-12-14T09:13:38.896Z,928.63
2018-12-14T09:14:38.937Z,928.62
2018-12-14T09:15:39.002Z,928.62
2018-12-14T09:16:39.042Z,928.67
2018-12-14T09:17:39.098Z,928.65
2018-12-14T09:18:39.125Z,928.68
2018-12-14T09:19:39.176Z,928.64
2018-12-14T09:20:39.229Z,928.69
2018-12-14T09:21:39.279Z,928.70
2018-12-14T09:22:39.312Z,928.70
2018-12-14T09:23:39.366Z,928.67
2018-12-14T09:24:39.398Z,928.71
2018-12-14T09:25:39.479Z,928.72
2018-12-14T09:26:39.576Z,928.72
2018-12-14T09:27:39.572Z,928.67
2018-12-14T09:28:39.587Z,928.66
2018-12-14T09:29:39.660Z,928.65
2018-12-14T09:30:42.654Z,928.62
2018-12-14T09:31:39.734Z,928.63
2018-12-14T09:32:39.777Z,928.60
2018-12-14T09:33:39.858Z,928.58
2018-12-14T09:34:39.869Z,928.59
2018-12-14T09:35:39.942Z,928.58
2018-12-14T09:36:40.005Z,928.57
2018-12-14T09:37:40.042Z,928.54
2018-12-14T09:38:40.089Z,928.57
2018-12-14T09:39:40.133Z,928.56
2018-12-14T09:40:40.187Z,928.55
2018-12-14T09:41:40.210Z,928.51
2018-12-14T09:42:40.266Z,928.54
2018-12-14T09:43:40.316Z,928.57
2018-12-14T09:44:40.369Z,928.49
2018-12-14T09:45:40.400Z,928.50
2018-12-14T09:46:40.459Z,928.51
2018-12-14T09:47:40.570Z,928.56
2018-12-14T09:48:40.552Z,928.58
2018-12-14T09:49:40.600Z,928.59
2018-12-14T09:50:40.702Z,928.64
2018-12-14T09:51:40.713Z,928.62
2018-12-14T09:52:40.746Z,928.69
2018-12-14T09:53:40.809Z,928.75
2018-12-14T09:54:40.839Z,928.76
2018-12-14T09:55:40.893Z,928.77
2018-12-14T09:56:40.935Z,928.74
2018-12-14T09:57:40.972Z,928.72
2018-12-14T09:58:41.040Z,928.72
2018-12-14T09:59:41.114Z,928.76
2018-12-14T10:00:41.142Z,928.82
2018-12-14T10:01:41.178Z,928.76
2018-12-14T10:02:41.239Z,928.81
2018-12-14T10:03:41.285Z,928.85
2018-12-14T10:04:41.358Z,928.85
2018-12-14T10:05:41.384Z,928.90
2018-12-14T10:06:41.426Z,928.90
2018-12-14T10:07:46.846Z,928.93
2018-12-14T10:08:41.515Z,928.96
2018-12-14T10:09:41.633Z,928.96
2018-12-14T10:10:41.619Z,929.03
2018-12-14T10:11:41.737Z,929.03
2018-12-14T10:12:41.743Z,929.03
2018-12-14T10:13:41.772Z,929.02
2018-12-14T10:14:41.820Z,929.05
2018-12-14T10:15:41.874Z,929.09
2018-12-14T10:16:41.967Z,929.09
2018-12-14T10:17:41.981Z,929.13
2018-12-14T10:18:42.016Z,929.12
2018-12-14T10:19:42.089Z,929.17
2018-12-14T10:20:42.116Z,929.14
2018-12-14T10:21:42.171Z,929.16
2018-12-14T10:22:42.241Z,929.12
2018-12-14T10:23:42.269Z,929.17
2018-12-14T10:24:42.350Z,929.20
2018-12-14T10:25:42.418Z,929.17
2018-12-14T10:26:42.493Z,929.20
2018-12-14T10:27:42.498Z,929.16
2018-12-14T10:28:42.548Z,929.14
2018-12-14T10:29:42.624Z,929.12
2018-12-14T10:30:42.715Z,929.14
2018-12-14T10:31:42.719Z,929.10
2018-12-14T10:32:42.770Z,929.10
2018-12-14T10:33:42.835Z,929.12
2018-12-14T10:34:42.906Z,929.13
2018-12-14T10:35:42.990Z,929.13
2018-12-14T10:36:42.999Z,929.14
2018-12-14T10:37:43.057Z,929.13
2018-12-14T10:38:43.115Z,929.12
2018-12-14T10:39:43.235Z,929.19
2018-12-14T10:40:43.246Z,929.19
2018-12-14T10:41:43.289Z,929.24
2018-12-14T10:42:43.393Z,929.23
2018-12-14T10:43:43.410Z,929.24
2018-12-14T10:44:43.460Z,929.26
2018-12-14T10:45:43.783Z,929.29
2018-12-14T10:46:43.572Z,929.30
2018-12-14T10:47:43.652Z,929.30
2018-12-14T10:48:43.691Z,929.31
2018-12-14T10:49:43.770Z,929.32
2018-12-14T10:50:43.813Z,929.35
2018-12-14T10:51:43.880Z,929.31
2018-12-14T10:52:43.929Z,929.33
2018-12-14T10:53:43.985Z,929.36
2018-12-14T10:54:44.068Z,929.31
2018-12-14T10:55:44.112Z,929.34
2018-12-14T10:56:44.200Z,929.34
2018-12-14T10:57:44.234Z,929.39
2018-12-14T10:58:44.301Z,929.38
2018-12-14T10:59:44.339Z,929.41
2018-12-14T11:00:44.427Z,929.42
2018-12-14T11:01:44.482Z,929.39
2018-12-14T11:02:44.586Z,929.38
2018-12-14T11:03:44.597Z,929.38
2018-12-14T11:04:44.664Z,929.38
2018-12-14T11:05:44.715Z,929.42
2018-12-14T11:06:44.759Z,929.45
2018-12-14T11:07:44.821Z,929.43
2018-12-14T11:08:44.886Z,929.47
2018-12-14T11:09:45.001Z,929.50
2018-12-14T11:10:45.071Z,929.48
2018-12-14T11:11:45.078Z,929.52
2018-12-14T11:12:45.130Z,929.51
2018-12-14T11:13:45.195Z,929.52
2018-12-14T11:14:45.313Z,929.53
2018-12-14T11:15:45.309Z,929.51
2018-12-14T11:16:45.378Z,929.54
2018-12-14T11:17:45.742Z,929.55
2018-12-14T11:18:45.505Z,929.56
2018-12-14T11:19:45.582Z,929.59
2018-12-14T11:20:45.666Z,929.61
2018-12-14T11:21:45.724Z,929.59
2018-12-14T11:22:45.739Z,929.62
2018-12-14T11:23:45.800Z,929.61
2018-12-14T11:24:45.911Z,929.61
2018-12-14T11:25:45.940Z,929.57
2018-12-14T11:26:45.997Z,929.60
2018-12-14T11:27:46.037Z,929.64
2018-12-14T11:28:46.125Z,929.64
2018-12-14T11:29:46.223Z,929.64
2018-12-14T11:30:46.232Z,929.69
2018-12-14T11:31:46.292Z,929.63
2018-12-14T11:32:46.365Z,929.64
2018-12-14T11:33:46.717Z,929.61
2018-12-14T11:34:46.470Z,929.65
2018-12-14T11:35:46.547Z,929.64
2018-12-14T11:36:46.619Z,929.63
2018-12-14T11:37:46.684Z,929.65
2018-12-14T11:38:46.738Z,929.64
2018-12-14T11:39:46.814Z,929.69
2018-12-14T11:40:46.847Z,929.65
2018-12-14T11:41:46.915Z,929.71
2018-12-14T11:42:47.040Z,929.70
2018-12-14T11:43:47.029Z,929.69
2018-12-14T11:44:47.367Z,929.68
2018-12-14T11:45:47.170Z,929.70
2018-12-14T11:46:47.217Z,929.72
2018-12-14T11:47:47.277Z,929.72
2018-12-14T11:48:47.382Z,929.73
2018-12-14T11:49:48.545Z,929.75
2018-12-14T11:50:47.456Z,929.79
2018-12-14T11:51:47.528Z,929.75
2018-12-14T11:52:47.584Z,929.78
2018-12-14T11:53:47.701Z,929.74
2018-12-14T11:54:47.722Z,929.78
2018-12-14T11:55:47.781Z,929.79
2018-12-14T11:56:47.841Z,929.83
2018-12-14T11:57:47.950Z,929.80
2018-12-14T11:58:47.953Z,929.84
2018-12-14T11:59:48.072Z,929.84
2018-12-14T12:00:48.087Z,929.83
2018-12-14T12:01:48.155Z,929.78
2018-12-14T12:02:48.196Z,929.75
2018-12-14T12:03:48.256Z,929.76
2018-12-14T12:04:48.323Z,929.77
2018-12-14T12:05:48.377Z,929.77
2018-12-14T12:06:48.453Z,929.81
2018-12-14T12:07:48.517Z,929.85
2018-12-14T12:08:48.582Z,929.87
2018-12-14T12:09:48.719Z,929.83
2018-12-14T12:10:48.719Z,929.81
2018-12-14T12:11:48.764Z,929.86
2018-12-14T12:12:48.838Z,929.85
2018-12-14T12:13:48.879Z,929.80
2018-12-14T12:14:48.965Z,929.78
2018-12-14T12:15:49.065Z,929.80
2018-12-14T12:16:49.114Z,929.81
2018-12-14T12:17:49.779Z,929.84
2018-12-14T12:18:49.206Z,929.80
2018-12-14T12:19:49.273Z,929.80
2018-12-14T12:20:49.324Z,929.80
2018-12-14T12:21:49.411Z,929.85
2018-12-14T12:22:49.473Z,929.83
2018-12-14T12:23:55.090Z,929.85
2018-12-14T12:24:49.573Z,929.84
2018-12-14T12:25:49.637Z,929.82
2018-12-14T12:26:49.725Z,929.79
2018-12-14T12:27:49.760Z,929.77
2018-12-14T12:28:49.833Z,929.74